createdAt,value
2018-06-12T00:00:33.051Z,14.43
2018-06-12T00:03:01.784Z,13.33
2018-06-12T00:05:30.390Z,12.77
2018-06-12T00:07:59.219Z,11.93
2018-06-12T00:10:28.190Z,12.33
2018-06-12T00:12:56.897Z,14.07
2018-06-12T00:15:25.714Z,11.80
2018-06-12T00:17:54.668Z,12.00
2018-06-12T00:20:23.381Z,10.93
2018-06-12T00:22:51.990Z,12.60
2018-06-12T00:25:20.839Z,11.40
2018-06-12T00:27:49.566Z,12.37
2018-06-12T00:30:18.146Z,12.77
2018-06-12T00:32:46.970Z,13.20
2018-06-12T00:35:15.702Z,15.00
2018-06-12T00:37:44.518Z,13.27
2018-06-12T00:40:13.471Z,13.77
2018-06-12T00:42:42.194Z,13.20
2018-06-12T00:45:10.794Z,12.97
2018-06-12T00:47:39.622Z,13.10
2018-06-12T00:50:08.346Z,13.33
2018-06-12T00:52:36.937Z,14.17
2018-06-12T00:55:05.774Z,15.13
2018-06-12T00:57:34.506Z,13.47
2018-06-12T01:00:03.110Z,13.47
2018-06-12T01:02:31.944Z,15.60
2018-06-12T01:05:00.904Z,15.60
2018-06-12T01:07:29.841Z,15.83
2018-06-12T01:09:58.568Z,16.40
2018-06-12T01:12:27.163Z,14.90
2018-06-12T01:14:55.763Z,15.80
2018-06-12T01:17:24.343Z,16.10
2018-06-12T01:19:53.161Z,14.17
2018-06-12T01:22:21.877Z,15.63
2018-06-12T01:24:50.687Z,15.17
2018-06-12T01:27:19.402Z,15.70
2018-06-12T01:29:48.018Z,16.43
2018-06-12T01:32:16.831Z,16.87
2018-06-12T01:34:45.764Z,15.10
2018-06-12T01:37:14.495Z,15.23
2018-06-12T01:39:45.698Z,15.47
2018-06-12T01:42:14.647Z,17.63
2018-06-12T01:44:43.373Z,17.13
2018-06-12T01:47:12.238Z,16.67
2018-06-12T01:49:40.945Z,17.00
2018-06-12T01:52:09.787Z,17.30
2018-06-12T01:54:38.718Z,18.50
2018-06-12T01:57:07.431Z,20.80
2018-06-12T01:59:36.250Z,17.57
2018-06-12T02:02:05.234Z,18.27
2018-06-12T02:04:33.941Z,17.23
2018-06-12T02:07:02.775Z,21.40
2018-06-12T02:09:31.722Z,20.03
2018-06-12T02:12:00.691Z,19.23
2018-06-12T02:14:29.654Z,19.77
2018-06-12T02:16:58.417Z,18.40
2018-06-12T02:19:27.218Z,18.53
2018-06-12T02:21:56.175Z,20.63
2018-06-12T02:24:25.107Z,20.07
2018-06-12T02:26:53.820Z,21.57
2018-06-12T02:29:22.414Z,21.47
2018-06-12T02:31:51.014Z,26.60
2018-06-12T02:34:19.842Z,21.80
2018-06-12T02:36:48.570Z,21.17
2018-06-12T02:39:17.224Z,22.90
2018-06-12T02:41:45.825Z,21.93
2018-06-12T02:44:14.655Z,21.40
2018-06-12T02:46:43.358Z,21.67
2018-06-12T02:49:11.944Z,19.50
2018-06-12T02:51:40.766Z,22.37
2018-06-12T02:54:09.493Z,22.03
2018-06-12T02:56:38.085Z,21.77
2018-06-12T02:59:06.902Z,21.00
2018-06-12T03:01:35.857Z,21.90
2018-06-12T03:04:04.571Z,21.43
2018-06-12T03:06:33.398Z,22.87
2018-06-12T03:09:02.123Z,23.73
2018-06-12T03:11:30.730Z,21.70
2018-06-12T03:13:59.331Z,24.87
2018-06-12T03:16:28.162Z,22.60
2018-06-12T03:18:56.880Z,24.27
2018-06-12T03:21:25.707Z,25.10
2018-06-12T03:23:54.433Z,23.83
2018-06-12T03:26:23.006Z,25.60
2018-06-12T03:28:51.595Z,26.40
2018-06-12T03:31:20.480Z,24.93
2018-06-12T03:33:49.446Z,25.57
2018-06-12T03:36:18.399Z,24.60
2018-06-12T03:38:47.349Z,25.33
2018-06-12T03:41:16.072Z,28.77
2018-06-12T03:43:44.902Z,29.73
2018-06-12T03:46:13.862Z,27.00
2018-06-12T03:48:43.429Z,31.70
2018-06-12T03:51:12.022Z,24.23
2018-06-12T03:53:40.604Z,24.23
2018-06-12T03:56:09.430Z,21.07
2018-06-12T03:58:38.379Z,25.60
2018-06-12T04:01:07.108Z,25.33
2018-06-12T04:03:35.709Z,29.70
2018-06-12T04:06:04.361Z,27.53
2018-06-12T04:08:32.938Z,26.00
2018-06-12T04:11:01.542Z,26.83
2018-06-12T04:13:30.353Z,25.33
2018-06-12T04:15:59.298Z,26.10
2018-06-12T04:18:28.022Z,25.57
2018-06-12T04:20:56.854Z,31.00
2018-06-12T04:23:25.566Z,31.20
2018-06-12T04:25:54.170Z,28.80
2018-06-12T04:28:22.979Z,27.87
2018-06-12T04:30:51.911Z,29.93
2018-06-12T04:33:20.682Z,28.70
2018-06-12T04:35:49.503Z,29.83
2018-06-12T04:38:18.202Z,30.83
2018-06-12T04:40:46.806Z,34.00
2018-06-12T04:43:15.710Z,37.83
2018-06-12T04:45:44.627Z,34.37
2018-06-12T04:48:13.350Z,37.13
2018-06-12T04:50:42.182Z,32.43
2018-06-12T04:53:10.886Z,33.53
2018-06-12T04:55:39.474Z,31.00
2018-06-12T04:58:08.418Z,34.23
2018-06-12T05:00:37.378Z,37.20
2018-06-12T05:03:06.329Z,34.80
2018-06-12T05:05:35.280Z,33.03
2018-06-12T05:08:03.998Z,34.43
2018-06-12T05:10:32.842Z,31.43
2018-06-12T05:13:01.797Z,28.67
2018-06-12T05:15:30.501Z,29.47
2018-06-12T05:17:59.302Z,30.80
2018-06-12T05:20:28.254Z,33.33
2018-06-12T05:22:57.230Z,29.10
2018-06-12T05:25:26.156Z,31.50
2018-06-12T05:27:55.153Z,27.20
2018-06-12T05:30:23.994Z,28.97
2018-06-12T05:32:52.707Z,25.40
2018-06-12T05:35:21.385Z,24.83
2018-06-12T05:37:50.206Z,25.67
2018-06-12T05:40:18.938Z,25.40
2018-06-12T05:42:47.514Z,23.93
2018-06-12T05:45:16.346Z,23.57
2018-06-12T05:47:45.310Z,24.20
2018-06-12T05:50:14.019Z,25.80
2018-06-12T05:52:42.852Z,23.33
2018-06-12T05:55:11.866Z,24.17
2018-06-12T05:57:40.806Z,23.30
2018-06-12T06:00:09.771Z,21.60
2018-06-12T06:02:38.489Z,22.40
2018-06-12T06:05:07.081Z,20.43
2018-06-12T06:07:35.686Z,21.50
2018-06-12T06:10:04.530Z,21.70
2018-06-12T06:12:33.108Z,21.53
2018-06-12T06:15:01.955Z,21.03
2018-06-12T06:17:30.634Z,21.13
2018-06-12T06:19:59.197Z,22.83
2018-06-12T06:22:28.084Z,22.87
2018-06-12T06:24:56.929Z,20.13
2018-06-12T06:27:25.618Z,22.50
2018-06-12T06:29:54.422Z,20.50
2018-06-12T06:32:23.358Z,21.40
2018-06-12T06:34:52.076Z,20.87
2018-06-12T06:37:20.914Z,21.80
2018-06-12T06:39:49.618Z,21.37
2018-06-12T06:42:18.206Z,21.23
2018-06-12T06:44:47.014Z,20.73
2018-06-12T06:47:15.954Z,18.23
2018-06-12T06:49:44.653Z,19.47
2018-06-12T06:52:13.238Z,18.87
2018-06-12T06:54:42.178Z,19.17
2018-06-12T06:57:10.914Z,18.83
2018-06-12T06:59:39.475Z,18.00
2018-06-12T07:02:08.331Z,16.47
2018-06-12T07:04:37.074Z,18.20
2018-06-12T07:07:05.631Z,16.73
2018-06-12T07:09:34.409Z,16.43
2018-06-12T07:12:03.114Z,16.23
2018-06-12T07:14:31.698Z,14.90
2018-06-12T07:17:00.270Z,17.47
2018-06-12T07:19:29.074Z,15.70
2018-06-12T07:21:57.775Z,14.27
2018-06-12T07:24:26.329Z,14.97
2018-06-12T07:26:55.130Z,14.83
2018-06-12T07:29:24.058Z,15.23
2018-06-12T07:31:52.969Z,13.33
2018-06-12T07:34:21.910Z,14.57
2018-06-12T07:36:50.678Z,12.00
2018-06-12T07:39:19.278Z,12.20
2018-06-12T07:41:48.091Z,12.70
2018-06-12T07:44:16.798Z,12.33
2018-06-12T07:46:45.353Z,12.00
2018-06-12T07:49:14.174Z,12.47
2018-06-12T07:51:42.882Z,10.90
2018-06-12T07:54:11.450Z,10.60
2018-06-12T07:56:40.272Z,12.23
2018-06-12T07:59:09.190Z,11.30
2018-06-12T08:01:37.869Z,10.67
2018-06-12T08:04:06.674Z,16.73
2018-06-12T08:06:35.602Z,10.83
2018-06-12T08:09:05.786Z,12.73
2018-06-12T08:11:34.425Z,10.70
2018-06-12T08:14:03.418Z,11.70
2018-06-12T08:16:32.118Z,11.00
2018-06-12T08:19:00.674Z,12.30
2018-06-12T08:21:29.500Z,10.27
2018-06-12T08:23:58.487Z,11.50
2018-06-12T08:58:53.703Z,7.37
2018-06-12T09:01:22.714Z,9.17
2018-06-12T09:03:51.613Z,8.03
2018-06-12T09:06:20.237Z,10.00
2018-06-12T09:08:49.082Z,9.03
2018-06-12T09:11:18.066Z,8.90
2018-06-12T09:14:46.870Z,8.17
2018-06-12T09:17:15.730Z,7.73
2018-06-12T09:19:44.542Z,7.77
2018-06-12T09:22:13.522Z,7.67
2018-06-12T09:24:42.509Z,13.93
2018-06-12T09:27:11.614Z,13.30
2018-06-12T09:29:40.392Z,9.63
2018-06-12T09:32:09.347Z,8.40
2018-06-12T09:34:38.462Z,7.73
2018-06-12T09:37:07.562Z,7.43
2018-06-12T09:39:36.657Z,6.77
